createdAt,value
2018-08-04T00:00:41.648Z,49.69
2018-08-04T00:03:10.915Z,49.50
2018-08-04T00:05:39.517Z,49.42
2018-08-04T00:08:08.984Z,49.76
2018-08-04T00:10:38.475Z,49.21
2018-08-04T00:13:07.880Z,49.88
2018-08-04T00:15:37.378Z,49.95
2018-08-04T00:18:09.294Z,50.72
2018-08-04T00:20:38.291Z,51.37
2018-08-04T00:23:07.783Z,51.38
2018-08-04T00:25:37.790Z,51.29
2018-08-04T00:28:07.797Z,51.19
2018-08-04T00:30:37.317Z,50.71
2018-08-04T00:33:07.648Z,51.64
2018-08-04T00:35:37.709Z,52.62
2018-08-04T00:38:07.412Z,52.04
2018-08-04T00:40:36.772Z,51.76
2018-08-04T00:43:06.584Z,51.09
2018-08-04T00:45:36.551Z,51.30
2018-08-04T00:48:06.665Z,51.95
2018-08-04T00:50:36.575Z,51.89
2018-08-04T00:53:06.866Z,51.78
2018-08-04T00:55:36.276Z,52.14
2018-08-04T00:58:07.216Z,52.75
2018-08-04T01:00:35.318Z,52.45
2018-08-04T01:03:03.360Z,53.35
2018-08-04T01:05:31.700Z,53.39
2018-08-04T01:07:59.722Z,52.83
2018-08-04T01:10:27.769Z,52.43
2018-08-04T01:12:55.806Z,52.25
2018-08-04T01:15:23.849Z,52.23
2018-08-04T01:17:51.890Z,53.33
2018-08-04T01:20:19.941Z,52.94
2018-08-04T01:22:48.271Z,53.22
2018-08-04T01:25:16.303Z,52.47
2018-08-04T01:27:44.319Z,52.36
2018-08-04T01:30:13.005Z,52.32
2018-08-04T01:32:48.871Z,52.12
2018-08-04T01:35:17.184Z,52.23
2018-08-04T01:37:45.264Z,52.50
2018-08-04T01:40:13.291Z,52.33
2018-08-04T01:42:41.326Z,52.00
2018-08-04T01:45:09.356Z,52.11
2018-08-04T01:47:37.432Z,52.21
2018-08-04T01:50:05.675Z,51.89
2018-08-04T01:52:33.717Z,52.52
2018-08-04T01:55:01.756Z,52.34
2018-08-04T01:57:29.889Z,52.88
2018-08-04T01:59:58.430Z,52.70
2018-08-04T02:02:26.474Z,53.02
2018-08-04T02:04:54.511Z,53.63
2018-08-04T02:07:22.612Z,53.23
2018-08-04T02:09:50.778Z,53.88
2018-08-04T02:12:18.816Z,54.26
2018-08-04T02:14:46.831Z,54.74
2018-08-04T02:17:14.863Z,54.14
2018-08-04T02:19:42.900Z,54.71
2018-08-04T02:22:11.244Z,54.49
2018-08-04T02:24:39.624Z,54.69
2018-08-04T02:27:08.630Z,55.02
2018-08-04T02:29:37.967Z,55.23
2018-08-04T02:32:08.029Z,55.15
2018-08-04T02:34:37.309Z,55.76
2018-08-04T02:37:06.600Z,56.17
2018-08-04T02:39:35.664Z,55.78
2018-08-04T02:42:04.896Z,56.24
2018-08-04T02:44:34.124Z,55.63
2018-08-04T02:47:03.202Z,56.60
2018-08-04T02:49:32.162Z,56.07
2018-08-04T02:52:00.223Z,56.43
2018-08-04T02:54:28.291Z,56.41
2018-08-04T02:56:56.323Z,56.10
2018-08-04T02:59:24.371Z,56.84
2018-08-04T03:01:52.422Z,57.04
2018-08-04T03:04:20.739Z,58.09
2018-08-04T03:06:48.838Z,57.23
2018-08-04T03:09:16.946Z,57.51
2018-08-04T03:11:45.472Z,57.59
2018-08-04T03:14:14.160Z,58.00
2018-08-04T03:16:42.584Z,58.12
2018-08-04T03:19:11.228Z,58.73
2018-08-04T03:21:39.996Z,58.99
2018-08-04T03:24:08.831Z,59.40
2018-08-04T03:26:38.057Z,60.08
2018-08-04T03:29:06.977Z,59.65
2018-08-04T03:31:36.154Z,60.00
2018-08-04T03:34:05.272Z,59.51
2018-08-04T03:36:34.655Z,59.81
2018-08-04T03:39:03.566Z,59.86
2018-08-04T03:41:32.216Z,60.14
2018-08-04T03:44:00.407Z,59.93
2018-08-04T03:46:28.479Z,60.33
2018-08-04T03:48:56.605Z,61.00
2018-08-04T03:51:24.652Z,61.55
2018-08-04T03:53:52.979Z,60.80
2018-08-04T03:56:21.039Z,61.54
2018-08-04T03:58:49.084Z,61.65
2018-08-04T04:01:17.149Z,60.89
2018-08-04T04:03:45.183Z,60.94
2018-08-04T04:06:13.275Z,61.37
2018-08-04T04:08:41.309Z,61.05
2018-08-04T04:11:09.323Z,61.43
2018-08-04T04:13:37.361Z,61.29
2018-08-04T04:16:05.396Z,60.68
2018-08-04T04:18:33.435Z,61.52
2018-08-04T04:21:01.531Z,61.17
2018-08-04T04:23:29.579Z,60.89
2018-08-04T04:25:57.619Z,61.18
2018-08-04T04:28:25.674Z,61.50
2018-08-04T04:30:53.735Z,60.99
2018-08-04T04:33:22.051Z,60.57
2018-08-04T04:35:50.104Z,60.17
2018-08-04T04:38:18.280Z,60.19
2018-08-04T04:40:46.439Z,59.86
2018-08-04T04:43:14.907Z,59.93
2018-08-04T04:45:42.990Z,58.92
2018-08-04T04:48:11.012Z,58.01
2018-08-04T04:50:39.091Z,58.06
2018-08-04T04:53:07.144Z,57.37
2018-08-04T04:55:35.177Z,57.17
2018-08-04T04:58:03.270Z,55.96
2018-08-04T05:00:31.311Z,55.07
2018-08-04T05:02:59.355Z,53.12
2018-08-04T05:05:27.415Z,53.84
2018-08-04T05:07:55.487Z,53.15
2018-08-04T05:10:23.530Z,51.94
2018-08-04T05:12:51.704Z,52.78
2018-08-04T05:15:19.751Z,53.07
2018-08-04T05:17:47.772Z,53.90
2018-08-04T05:20:15.874Z,54.83
2018-08-04T05:22:43.922Z,55.64
2018-08-04T05:25:11.959Z,55.74
2018-08-04T05:27:39.983Z,56.77
2018-08-04T05:30:08.246Z,57.28
2018-08-04T05:32:36.456Z,56.72
2018-08-04T05:35:04.528Z,57.49
2018-08-04T05:37:33.074Z,57.66
2018-08-04T05:40:01.075Z,57.94
2018-08-04T05:42:29.112Z,57.74
2018-08-04T05:44:57.490Z,58.36
2018-08-04T05:47:25.512Z,59.35
2018-08-04T05:49:53.541Z,59.60
2018-08-04T05:52:21.728Z,59.19
2018-08-04T05:54:49.755Z,59.16
2018-08-04T05:57:17.792Z,58.17
2018-08-04T05:59:46.419Z,58.40
2018-08-04T06:02:14.793Z,58.27
2018-08-04T06:04:43.118Z,58.32
2018-08-04T06:07:11.911Z,59.54
2018-08-04T06:09:40.430Z,59.23
2018-08-04T06:12:09.006Z,58.56
2018-08-04T06:14:37.973Z,58.82
2018-08-04T06:17:07.049Z,59.21
2018-08-04T06:19:36.129Z,58.33
2018-08-04T06:22:05.253Z,58.18
2018-08-04T06:24:34.545Z,57.66
2018-08-04T06:27:03.030Z,58.09
2018-08-04T06:29:31.425Z,58.10
2018-08-04T06:31:59.516Z,57.34
2018-08-04T06:34:27.546Z,57.00
2018-08-04T06:36:55.590Z,56.91
2018-08-04T06:39:23.643Z,56.22
2018-08-04T06:41:51.674Z,55.18
2018-08-04T06:44:19.683Z,54.66
2018-08-04T06:46:47.723Z,52.89
2018-08-04T06:49:15.742Z,50.89
2018-08-04T06:51:43.767Z,51.00
2018-08-04T06:54:12.100Z,49.42
2018-08-04T06:56:40.155Z,48.96
2018-08-04T06:59:08.182Z,46.99
2018-08-04T07:01:36.227Z,48.06
2018-08-04T07:04:04.264Z,47.87
2018-08-04T07:06:32.313Z,47.27
2018-08-04T07:09:00.352Z,48.01
2018-08-04T07:11:28.375Z,47.25
2018-08-04T07:13:56.406Z,45.76
2018-08-04T07:16:24.435Z,45.76
2018-08-04T07:18:52.590Z,46.20
2018-08-04T07:21:20.638Z,45.43
2018-08-04T07:23:49.052Z,44.50
2018-08-04T07:26:17.078Z,41.96
2018-08-04T07:28:45.316Z,41.82
2018-08-04T07:31:13.714Z,41.11
2018-08-04T07:33:41.743Z,40.43
2018-08-04T07:36:09.775Z,41.53
2018-08-04T07:38:37.838Z,40.28
2018-08-04T07:41:05.919Z,41.72
2018-08-04T07:43:33.923Z,40.62
2018-08-04T07:46:02.600Z,41.66
2018-08-04T07:48:31.085Z,41.44
2018-08-04T07:50:59.231Z,41.21
2018-08-04T07:53:27.266Z,41.59
2018-08-04T07:55:55.311Z,40.94
2018-08-04T07:58:23.499Z,40.02
2018-08-04T08:00:51.535Z,39.33
2018-08-04T08:03:19.587Z,37.87
2018-08-04T08:05:47.683Z,37.89
2018-08-04T08:08:15.855Z,36.38
2018-08-04T08:10:44.688Z,35.42
2018-08-04T08:13:13.051Z,35.99
2018-08-04T08:15:41.360Z,36.05
2018-08-04T08:18:09.869Z,34.91
2018-08-04T08:20:38.498Z,34.15
2018-08-04T08:23:07.497Z,36.64
2018-08-04T08:25:36.546Z,36.82
2018-08-04T08:28:04.924Z,37.02
2018-08-04T08:30:34.692Z,37.21
2018-08-04T08:33:03.642Z,36.08
2018-08-04T08:35:32.219Z,36.84
2018-08-04T08:38:00.330Z,36.25
2018-08-04T08:40:28.426Z,37.19
2018-08-04T08:42:56.463Z,37.61
2018-08-04T08:45:24.497Z,38.12
2018-08-04T08:47:52.982Z,38.32
2018-08-04T08:50:21.332Z,37.60
2018-08-04T08:52:49.389Z,37.12
2018-08-04T08:55:17.436Z,35.77
2018-08-04T08:57:45.531Z,36.00
2018-08-04T09:00:13.595Z,35.63
2018-08-04T09:02:41.664Z,36.27
2018-08-04T09:05:10.444Z,37.25
2018-08-04T09:07:38.471Z,38.01
2018-08-04T09:10:08.756Z,37.91
2018-08-04T09:12:36.823Z,37.00
2018-08-04T09:15:05.200Z,37.01
2018-08-04T09:17:33.267Z,36.80
2018-08-04T09:20:01.327Z,36.31
2018-08-04T09:22:29.397Z,36.43
2018-08-04T09:24:57.624Z,36.76
2018-08-04T09:27:25.975Z,36.77
2018-08-04T09:29:54.036Z,36.37
2018-08-04T09:32:22.143Z,35.40
2018-08-04T09:34:50.206Z,34.67
2018-08-04T09:37:18.252Z,35.48
2018-08-04T09:39:46.332Z,34.61
2018-08-04T09:42:14.400Z,32.31
2018-08-04T09:44:42.494Z,32.13
2018-08-04T09:47:10.539Z,32.39
2018-08-04T09:49:38.736Z,32.50
2018-08-04T09:52:06.937Z,33.14
2018-08-04T09:54:35.120Z,32.42
2018-08-04T09:57:03.224Z,31.35
2018-08-04T09:59:31.328Z,31.86
2018-08-04T10:02:04.747Z,33.13
2018-08-04T10:04:32.913Z,34.43
2018-08-04T10:07:01.368Z,34.59
2018-08-04T10:09:29.414Z,35.13
2018-08-04T10:11:57.519Z,35.94
2018-08-04T10:14:25.803Z,36.29
2018-08-04T10:16:54.241Z,35.74
2018-08-04T10:19:22.650Z,36.43
2018-08-04T10:21:50.695Z,36.60
2018-08-04T10:24:18.880Z,36.68
2018-08-04T10:26:47.400Z,35.90
2018-08-04T10:29:16.325Z,36.76
2018-08-04T10:31:45.383Z,36.72
2018-08-04T10:34:13.873Z,37.58
2018-08-04T10:36:41.971Z,36.85
2018-08-04T10:39:10.635Z,35.65
2018-08-04T10:41:38.678Z,35.99
2018-08-04T10:44:06.877Z,36.63
2018-08-04T10:46:34.939Z,35.03
2018-08-04T10:49:03.016Z,34.47
2018-08-04T10:51:31.065Z,35.09
2018-08-04T10:53:59.132Z,35.40
2018-08-04T10:56:27.427Z,34.82
2018-08-04T10:58:55.619Z,34.87
2018-08-04T11:01:23.653Z,32.99
2018-08-04T11:03:51.732Z,34.16
2018-08-04T11:06:19.827Z,33.78
2018-08-04T11:08:47.859Z,34.22
2018-08-04T11:11:15.995Z,33.74
2018-08-04T11:13:44.035Z,33.52
2018-08-04T11:16:12.097Z,33.79
2018-08-04T11:18:40.148Z,33.21
2018-08-04T11:21:08.205Z,33.56
2018-08-04T11:23:36.393Z,32.68
2018-08-04T11:26:04.460Z,33.50
2018-08-04T11:28:32.503Z,33.04
2018-08-04T11:31:00.586Z,32.95
2018-08-04T11:33:28.578Z,32.09
2018-08-04T11:35:56.714Z,31.32
2018-08-04T11:38:24.745Z,32.75
2018-08-04T11:40:52.820Z,33.34
2018-08-04T11:43:21.174Z,32.60
2018-08-04T11:45:49.224Z,32.96
2018-08-04T11:48:17.270Z,32.21
2018-08-04T11:50:45.624Z,33.98
2018-08-04T11:53:13.651Z,33.94
2018-08-04T11:55:42.251Z,34.91
2018-08-04T11:58:11.164Z,33.71
2018-08-04T12:00:39.775Z,33.88
2018-08-04T12:03:09.015Z,33.24
2018-08-04T12:05:38.102Z,33.70
2018-08-04T12:08:07.966Z,34.77
2018-08-04T12:10:36.339Z,34.78
2018-08-04T12:13:04.362Z,34.82
2018-08-04T12:15:32.403Z,35.21
2018-08-04T12:18:00.469Z,34.91
2018-08-04T12:20:28.502Z,35.56
2018-08-04T12:22:56.531Z,34.65
2018-08-04T12:25:24.854Z,35.44
2018-08-04T12:27:52.870Z,35.57
2018-08-04T12:30:20.917Z,35.68
2018-08-04T12:32:49.212Z,35.60
2018-08-04T12:35:17.546Z,35.17
2018-08-04T12:37:46.196Z,34.51
2018-08-04T12:40:15.392Z,34.05
2018-08-04T12:42:44.224Z,34.56
2018-08-04T12:45:12.752Z,34.51
2018-08-04T12:47:41.334Z,33.68
2018-08-04T12:50:10.252Z,34.96
2018-08-04T12:52:39.213Z,34.33
2018-08-04T12:55:08.632Z,34.50
2018-08-04T12:57:37.510Z,33.98
2018-08-04T13:00:07.964Z,34.43
2018-08-04T13:02:37.215Z,34.95
2018-08-04T13:05:07.711Z,34.92
2018-08-04T13:07:35.749Z,34.72
2018-08-04T13:10:03.959Z,33.61
2018-08-04T13:12:32.039Z,33.37
2018-08-04T13:15:00.097Z,33.93
2018-08-04T13:17:28.140Z,32.90
2018-08-04T13:19:56.207Z,33.62
2018-08-04T13:22:24.401Z,34.10
2018-08-04T13:24:52.503Z,34.35
2018-08-04T13:27:20.544Z,33.71
2018-08-04T13:29:48.578Z,34.74
2018-08-04T13:32:17.257Z,35.24
2018-08-04T13:34:45.282Z,34.56
2018-08-04T13:37:13.387Z,34.46
2018-08-04T13:39:41.958Z,34.93
2018-08-04T13:42:10.023Z,35.57
2018-08-04T13:44:38.083Z,35.42
2018-08-04T13:47:06.154Z,36.35
2018-08-04T13:49:34.199Z,35.50
2018-08-04T13:52:02.500Z,35.79
2018-08-04T13:54:30.544Z,35.80
2018-08-04T13:56:58.572Z,35.01
2018-08-04T13:59:26.639Z,34.92
2018-08-04T14:01:54.682Z,35.52
2018-08-04T14:04:22.951Z,35.63
2018-08-04T14:06:51.003Z,35.24
2018-08-04T14:09:19.079Z,35.37
2018-08-04T14:11:47.391Z,35.26
2018-08-04T14:14:15.416Z,34.48
2018-08-04T14:16:43.454Z,35.07
2018-08-04T14:19:11.887Z,34.53
2018-08-04T14:21:40.740Z,33.94
2018-08-04T14:24:09.302Z,34.29
2018-08-04T14:26:37.958Z,34.45
2018-08-04T14:29:06.053Z,33.99
2018-08-04T14:31:34.084Z,33.29
2018-08-04T14:34:02.135Z,33.14
2018-08-04T14:36:30.199Z,33.03
2018-08-04T14:38:58.239Z,32.85
2018-08-04T14:41:26.330Z,33.12
2018-08-04T14:43:54.353Z,33.44
2018-08-04T14:46:22.389Z,33.02
2018-08-04T14:48:50.441Z,32.86
2018-08-04T14:51:18.555Z,33.50
2018-08-04T14:53:46.623Z,32.76
2018-08-04T14:56:14.724Z,32.76
2018-08-04T14:58:42.746Z,33.33
2018-08-04T15:01:10.796Z,33.23
2018-08-04T15:03:38.852Z,33.14
2018-08-04T15:06:06.876Z,32.15
2018-08-04T15:08:34.931Z,31.94
2018-08-04T15:11:02.950Z,31.57
2018-08-04T15:13:31.011Z,32.25
2018-08-04T15:15:59.095Z,32.41
2018-08-04T15:18:27.149Z,32.11
2018-08-04T15:20:55.284Z,32.46
2018-08-04T15:23:23.365Z,32.63
2018-08-04T15:25:51.431Z,31.95
2018-08-04T15:28:19.459Z,32.24
2018-08-04T15:30:47.576Z,32.42
2018-08-04T15:33:15.599Z,31.91
2018-08-04T15:35:43.634Z,32.55
2018-08-04T15:38:11.680Z,32.71
2018-08-04T15:40:39.728Z,32.98
2018-08-04T15:43:07.799Z,32.94
2018-08-04T15:45:35.844Z,33.38
2018-08-04T15:48:03.996Z,33.59
2018-08-04T15:50:32.003Z,33.60
2018-08-04T15:53:00.075Z,33.28
2018-08-04T15:55:28.134Z,34.16
2018-08-04T15:57:56.152Z,33.87
2018-08-04T16:00:24.211Z,33.59
2018-08-04T16:02:52.257Z,33.45
2018-08-04T16:05:20.295Z,33.93
2018-08-04T16:07:48.327Z,34.65
2018-08-04T16:10:16.379Z,34.08
2018-08-04T16:12:44.396Z,34.54
2018-08-04T16:15:12.439Z,34.58
2018-08-04T16:17:40.508Z,34.91
2018-08-04T16:20:12.056Z,35.40
2018-08-04T16:22:40.137Z,35.21
2018-08-04T16:25:08.177Z,34.85
2018-08-04T16:27:36.247Z,35.88
2018-08-04T16:30:04.763Z,35.84
2018-08-04T16:32:32.788Z,36.20
2018-08-04T16:35:00.840Z,35.67
2018-08-04T16:37:28.864Z,36.59
2018-08-04T16:39:57.156Z,36.06
2018-08-04T16:42:25.199Z,36.37
2018-08-04T16:44:53.264Z,35.82
2018-08-04T16:47:21.319Z,35.61
2018-08-04T16:52:11.860Z,37.21
2018-08-04T16:54:39.865Z,37.41
2018-08-04T16:57:07.976Z,38.03
2018-08-04T16:59:36.059Z,38.29
2018-08-04T17:02:04.107Z,37.73
2018-08-04T17:04:32.179Z,38.51
2018-08-04T17:07:00.225Z,37.91
2018-08-04T17:09:28.238Z,38.54
2018-08-04T17:11:56.296Z,38.82
2018-08-04T17:14:24.315Z,38.84
2018-08-04T17:16:52.347Z,37.99
2018-08-04T17:19:20.411Z,39.22
2018-08-04T17:21:48.459Z,38.69
2018-08-04T17:24:16.541Z,38.71
2018-08-04T17:26:44.555Z,38.83
2018-08-04T17:29:12.852Z,39.63
2018-08-04T17:31:40.883Z,39.34
2018-08-04T17:34:08.924Z,40.20
2018-08-04T17:36:36.975Z,39.38
2018-08-04T17:39:07.298Z,39.61
2018-08-04T17:41:35.341Z,39.43
2018-08-04T17:44:03.400Z,40.04
2018-08-04T17:46:31.804Z,40.38
2018-08-04T17:48:59.834Z,39.94
2018-08-04T17:51:27.928Z,40.95
2018-08-04T17:53:55.940Z,40.90
2018-08-04T17:56:23.956Z,40.54
2018-08-04T17:58:52.207Z,40.46
2018-08-04T18:01:20.267Z,41.10
2018-08-04T18:03:48.417Z,41.52
2018-08-04T18:06:16.491Z,41.65
2018-08-04T18:08:44.533Z,42.19
2018-08-04T18:11:12.588Z,41.81
2018-08-04T18:13:40.634Z,41.88
2018-08-04T18:16:08.749Z,42.34
2018-08-04T18:18:36.795Z,43.15
2018-08-04T18:21:05.188Z,42.72
2018-08-04T18:23:33.228Z,43.38
2018-08-04T18:26:02.005Z,43.64
2018-08-04T18:28:30.162Z,44.18
2018-08-04T18:30:58.329Z,44.42
2018-08-04T18:33:26.386Z,45.46
2018-08-04T18:35:54.439Z,44.85
2018-08-04T18:38:22.496Z,45.83
2018-08-04T18:40:50.560Z,45.83
2018-08-04T18:43:18.695Z,45.75
2018-08-04T18:45:46.723Z,45.58
2018-08-04T18:48:14.767Z,46.14
2018-08-04T18:50:42.836Z,46.55
2018-08-04T18:53:10.897Z,46.48
2018-08-04T18:55:38.923Z,46.91
2018-08-04T18:58:06.947Z,46.54
2018-08-04T19:00:35.135Z,46.10
2018-08-04T19:03:03.153Z,46.63
2018-08-04T19:05:31.516Z,47.67
2018-08-04T19:07:59.668Z,47.57
2018-08-04T19:10:27.784Z,47.39
2018-08-04T19:12:56.096Z,47.35
2018-08-04T19:15:24.248Z,47.95
2018-08-04T19:17:52.283Z,49.13
2018-08-04T19:20:20.339Z,49.19
2018-08-04T19:22:48.388Z,49.74
2018-08-04T19:25:17.104Z,50.16
2018-08-04T19:27:45.866Z,50.53
2018-08-04T19:30:14.529Z,50.64
2018-08-04T19:32:43.023Z,50.91
2018-08-04T19:35:11.774Z,50.71
2018-08-04T19:37:40.228Z,51.33
2018-08-04T19:40:08.914Z,50.78
2018-08-04T19:42:38.027Z,51.09
2018-08-04T19:45:07.125Z,51.94
2018-08-04T19:47:36.151Z,52.06
2018-08-04T19:50:05.470Z,51.88
2018-08-04T19:52:35.754Z,52.48
2018-08-04T19:55:05.834Z,52.98
2018-08-04T19:57:35.429Z,54.95
2018-08-04T20:00:05.386Z,55.36
2018-08-04T20:02:34.641Z,54.62
2018-08-04T20:05:04.841Z,55.09
2018-08-04T20:07:33.669Z,54.55
2018-08-04T20:10:02.630Z,55.84
2018-08-04T20:12:32.001Z,56.02
2018-08-04T20:15:00.176Z,55.84
2018-08-04T20:17:28.497Z,57.23
2018-08-04T20:19:57.408Z,57.51
2018-08-04T20:22:25.438Z,58.72
2018-08-04T20:24:53.664Z,58.65
2018-08-04T20:27:21.828Z,58.20
2018-08-04T20:29:49.868Z,57.66
2018-08-04T20:32:17.980Z,58.18
2018-08-04T20:34:46.332Z,58.61
2018-08-04T20:37:14.854Z,58.73
2018-08-04T20:39:43.592Z,58.77
2018-08-04T20:42:12.291Z,59.05
2018-08-04T20:44:40.750Z,59.47
2018-08-04T20:47:09.474Z,59.68
2018-08-04T20:49:38.063Z,60.31
2018-08-04T20:52:06.922Z,60.11
2018-08-04T20:54:35.083Z,59.77
2018-08-04T20:57:03.199Z,59.37
2018-08-04T20:59:31.241Z,59.42
2018-08-04T21:02:01.849Z,59.24
2018-08-04T21:04:31.132Z,60.25
2018-08-04T21:06:59.346Z,59.61
2018-08-04T21:12:30.411Z,60.74
2018-08-04T21:14:58.796Z,60.85
2018-08-04T21:17:26.883Z,60.93
2018-08-04T21:19:55.005Z,60.99
2018-08-04T21:22:23.123Z,60.76
2018-08-04T21:24:51.179Z,61.39
2018-08-04T21:27:19.583Z,61.61
2018-08-04T21:29:47.679Z,61.44
2018-08-04T21:32:15.788Z,61.95
2018-08-04T21:34:43.851Z,62.02
2018-08-04T21:37:11.960Z,61.79
2018-08-04T21:39:40.019Z,62.29
2018-08-04T21:42:08.106Z,62.35
2018-08-04T21:44:36.298Z,62.78
2018-08-04T21:47:04.415Z,63.18
2018-08-04T21:49:32.529Z,63.45
2018-08-04T21:52:00.567Z,63.24
2018-08-04T21:54:28.900Z,63.42
2018-08-04T21:57:00.655Z,63.16
2018-08-04T21:59:28.885Z,63.10
2018-08-04T22:01:57.552Z,63.10
2018-08-04T22:04:26.203Z,62.82
2018-08-04T22:08:03.164Z,63.26
2018-08-04T22:10:31.237Z,62.95
2018-08-04T22:12:59.347Z,63.01
2018-08-04T22:15:27.418Z,64.16
2018-08-04T22:17:55.507Z,64.23
2018-08-04T22:20:24.199Z,63.03
2018-08-04T22:22:52.543Z,63.84
2018-08-04T22:25:21.943Z,64.61
2018-08-04T22:27:50.267Z,64.29
2018-08-04T22:30:19.469Z,64.39
2018-08-04T22:32:47.948Z,64.89
2018-08-04T22:35:16.053Z,63.99
2018-08-04T22:37:44.363Z,63.73
2018-08-04T22:40:13.491Z,64.08
2018-08-04T22:42:41.876Z,64.53
2018-08-04T22:45:52.848Z,64.67
2018-08-04T22:48:21.993Z,64.16
2018-08-04T22:50:50.441Z,64.67
2018-08-04T22:53:18.804Z,64.77
2018-08-04T22:55:47.114Z,64.71
2018-08-04T22:58:15.238Z,64.90
2018-08-04T23:00:44.207Z,65.76
2018-08-04T23:03:12.887Z,66.14
2018-08-04T23:05:41.019Z,65.40
2018-08-04T23:08:09.977Z,65.56
2018-08-04T23:10:38.640Z,65.72
2018-08-04T23:13:06.955Z,65.74
2018-08-04T23:15:35.011Z,65.49
2018-08-04T23:18:03.060Z,66.33
2018-08-04T23:20:31.425Z,66.15
2018-08-04T23:23:00.003Z,65.46
2018-08-04T23:25:28.091Z,65.67
2018-08-04T23:27:56.175Z,64.93
2018-08-04T23:30:24.515Z,65.87
2018-08-04T23:32:53.128Z,66.18
2018-08-04T23:35:22.080Z,66.46
2018-08-04T23:37:50.642Z,65.43
2018-08-04T23:40:18.934Z,66.57
2018-08-04T23:42:47.028Z,66.89
2018-08-04T23:45:15.132Z,67.30
2018-08-04T23:47:43.222Z,66.59
2018-08-04T23:50:11.324Z,67.01
2018-08-04T23:52:39.338Z,67.32
2018-08-04T23:55:07.419Z,67.89
2018-08-04T23:57:35.494Z,67.63
